Time,TemperatureF,DewpointF,PressureIn,WindDirection,WindDirectionDegrees,WindSpeedMPH,WindSpeedGustMPH,Humidity,HourlyPrecipIn,Conditions,Clouds,dailyrainin,SoftwareType,DateUTC
2013-01-20 00:02:00,40.2,32.6,30.23,WSW,240,1.0,1.0,74,0.00,,,0.00,Wunderground v.1.15,2013-01-20 08:02:00,
2013-01-20 00:12:00,40.0,32.4,30.23,WNW,289,1.0,1.0,74,0.00,,,0.00,Wunderground v.1.15,2013-01-20 08:12:00,
2013-01-20 00:22:00,39.8,32.5,30.24,WNW,295,1.0,1.0,75,0.00,,,0.00,Wunderground v.1.15,2013-01-20 08:22:00,
2013-01-20 00:32:00,39.6,32.3,30.23,WNW,295,0.0,0.0,75,0.00,,,0.00,Wunderground v.1.15,2013-01-20 08:32:00,
2013-01-20 00:42:00,39.4,32.1,30.23,WSW,237,0.0,0.0,75,0.00,,,0.00,Wunderground v.1.15,2013-01-20 08:42:00,
2013-01-20 02:42:00,38.7,32.1,30.24,WNW,300,1.0,1.0,77,0.00,,,0.00,Wunderground v.1.15,2013-01-20 10:42:00,
2013-01-20 02:52:00,38.6,32.3,30.24,West,279,1.0,1.0,78,0.00,,,0.00,Wunderground v.1.15,2013-01-20 10:52:00,
2013-01-20 03:02:00,38.6,32.3,30.24,WNW,291,0.0,0.0,78,0.00,,,0.00,Wunderground v.1.15,2013-01-20 11:02:00,
2013-01-20 03:12:00,38.4,32.1,30.24,WNW,292,0.0,3.0,78,0.00,,,0.00,Wunderground v.1.15,2013-01-20 11:12:00,
2013-01-20 03:22:00,38.1,32.2,30.24,West,272,1.0,1.0,79,0.00,,,0.00,Wunderground v.1.15,2013-01-20 11:22:00,
2013-01-20 03:32:00,38.0,32.1,30.24,WNW,286,1.0,1.0,79,0.00,,,0.00,Wunderground v.1.15,2013-01-20 11:32:00,
2013-01-20 03:42:00,38.0,32.1,30.24,WNW,293,0.0,0.0,79,0.00,,,0.00,Wunderground v.1.15,2013-01-20 11:42:00,
2013-01-20 03:52:00,38.0,31.7,30.23,West,264,1.0,1.0,78,0.00,,,0.00,Wunderground v.1.15,2013-01-20 11:52:00,
2013-01-20 04:02:00,38.1,31.8,30.23,WNW,299,0.0,0.0,78,0.00,,,0.00,Wunderground v.1.15,2013-01-20 12:02:00,
2013-01-20 04:12:00,38.0,31.7,30.23,SSW,212,0.0,0.0,78,0.00,,,0.00,Wunderground v.1.15,2013-01-20 12:12:00,
2013-01-20 04:22:00,38.1,31.8,30.23,WNW,286,1.0,1.0,78,0.00,,,0.00,Wunderground v.1.15,2013-01-20 12:22:00,
2013-01-20 04:32:00,38.2,31.9,30.22,West,272,0.0,2.0,78,0.00,,,0.00,Wunderground v.1.15,2013-01-20 12:32:00,
2013-01-20 19:12:00,46.4,35.3,30.17,WNW,283,1.0,4.0,65,0.00,,,0.00,Wunderground v.1.15,2013-01-21 03:12:00,
2013-01-20 19:22:00,45.9,34.8,30.17,WSW,243,1.0,1.0,65,0.00,,,0.00,Wunderground v.1.15,2013-01-21 03:22:00,
2013-01-20 19:32:00,45.5,34.8,30.17,WSW,252,1.0,1.0,66,0.00,,,0.00,Wunderground v.1.15,2013-01-21 03:32:00,
2013-01-20 19:42:00,45.1,34.4,30.18,SW,230,1.0,1.0,66,0.00,,,0.00,Wunderground v.1.15,2013-01-21 03:42:00,
2013-01-20 19:52:00,44.7,34.0,30.18,WSW,241,1.0,1.0,66,0.00,,,0.00,Wunderground v.1.15,2013-01-21 03:52:00,
2013-01-20 20:02:00,44.3,34.0,30.18,NW,324,0.0,1.0,67,0.00,,,0.00,Wunderground v.1.15,2013-01-21 04:02:00,
2013-01-20 20:22:00,44.0,33.7,30.18,NW,318,1.0,1.0,67,0.00,,,0.00,Wunderground v.1.15,2013-01-21 04:22:00,